メインページ
METAR-TAF:

METAR-TAF

空港 :

バスラ国際空港

バスラ, イラク

緯度: 30-32-56N, 経度: 47-39-45E, 海抜: 1m

現時点の気象観測

当レポートは14分前の18:00(UTC)に作成
北/北東の風 16kt
気温 15°C
湿度 100%
気圧 1017 hPa
視程: 7000m
高度3500ftの雲はほとんどない
高度10000ftの曇り

METAR: ORMM 171800Z 02016KT 7000 FEW035 OVC100 15/15 Q1017 NOSIG

時間: 21:14 (18:14 UTC)

予報

当レポートは2時間14分前の16:00(UTC)に作成
予報は17日の 18時(UTC)から 18日の 18時(UTC)まで有効
北/北東の風 16kt
視程10km以上
高度3500ftの雲はほとんどない, 積乱雲.
高度10000ftの曇り
18日の 01時(UTC)から 18日の 05時(UTC)まで一時的に
北/北西の風 10kt
視程: 3500m
高度3000ftの雲はほとんどない, 積乱雲.
高度10000ftの千切れ雲あり
激しい雷雨, 雨
18日の 15時(UTC)から 18日の 17時(UTC)まで徐々に
西/北西の風 6kt
視程10km以上
1,500メートル以下は雲なし、積乱雲なし

TAF: ORMM 171600Z 1718/1818 03016KT 9999 FEW035CB OVC100 TEMPO 1801/1805 34010KT 3500 TSRA FEW030CB BKN100 BECMG 1815/1817 30006KT CAVOK

4,000以上の空港の気象観測と天気予報(METAR報とTAF報)

利用可能な観測所は地図上に黄色い丸と赤い丸で示す。

丸の上にカーソルを重ねると観測所名を参照できる。

次にクリックすると気象観測と天気予報を参照できる。

マップの切り替え:黒色「×」印の緑ボタンをクリックして拡大、「-」印の緑ボタンをクリックして縮小、緑色の三角印をクリックして隣りの地図に切り替え


METAR-TAF: